Time;durP1;ratioP1;P1;durP2;ratioP2;P2;SDS_P1;SDS_P2;PMS_P1;PMS_P2;Temp;Humidity;BMP_temperature;BMP_pressure;BME280_temperature;BME280_humidity;BME280_pressure;Samples;Min_cycle;Max_cycle;Signal;HPM_P1;HPM_P2
2021/03/01 00:01:58;;;;;;;5.43;2.80;;;19.00;45.80;;;;;;10409013;28;20677;-31
2021/03/01 00:07:20;;;;;;;5.70;3.00;;;19.00;45.90;;;;;;10408056;28;20217;-31
2021/03/01 00:12:43;;;;;;;5.73;2.77;;;19.00;45.90;;;;;;10408249;28;20197;-29
2021/03/01 00:18:05;;;;;;;6.23;2.57;;;18.90;45.80;;;;;;10409246;28;20602;-29
2021/03/01 00:23:27;;;;;;;7.30;3.00;;;18.90;46.00;;;;;;10409364;28;20202;-31
2021/03/01 00:28:49;;;;;;;5.53;2.67;;;18.90;46.10;;;;;;10416788;28;20703;-30
2021/03/01 00:34:11;;;;;;;5.97;3.10;;;18.90;46.10;;;;;;10417031;28;20213;-31
2021/03/01 00:39:32;;;;;;;7.30;3.10;;;18.90;46.10;;;;;;10417102;28;20657;-29
2021/03/01 00:44:55;;;;;;;6.83;2.93;;;18.90;46.20;;;;;;10415777;28;20217;-30
2021/03/01 00:50:19;;;;;;;5.93;3.20;;;18.80;46.30;;;;;;10413129;28;20221;-28
2021/03/01 00:55:40;;;;;;;7.13;3.20;;;18.80;46.20;;;;;;10455894;28;20942;-30
2021/03/01 01:01:03;;;;;;;7.13;3.00;;;18.80;46.20;;;;;;10455527;28;20190;-29
2021/03/01 01:06:25;;;;;;;4.43;3.20;;;18.80;46.20;;;;;;10456498;28;20217;-31
2021/03/01 01:11:46;;;;;;;7.97;3.50;;;18.80;46.30;;;;;;10454903;28;20193;-29
2021/03/01 01:17:09;;;;;;;5.87;3.20;;;18.80;46.30;;;;;;10455494;28;20220;-31
2021/03/01 01:22:30;;;;;;;7.27;3.60;;;18.80;46.30;;;;;;10454684;28;20197;-30
2021/03/01 01:27:52;;;;;;;5.93;3.23;;;18.80;46.30;;;;;;10443894;28;20390;-31
2021/03/01 01:33:15;;;;;;;6.33;3.40;;;18.70;46.30;;;;;;10410539;28;20198;-32
2021/03/01 01:38:36;;;;;;;5.50;3.07;;;18.70;46.40;;;;;;10413474;28;20198;-31
2021/03/01 01:43:58;;;;;;;5.60;2.87;;;18.70;46.20;;;;;;10413986;28;20592;-30
2021/03/01 01:49:20;;;;;;;4.73;2.80;;;18.70;46.00;;;;;;10412955;28;20210;-30
2021/03/01 01:54:43;;;;;;;4.63;2.80;;;18.70;45.90;;;;;;10413287;28;20225;-32
2021/03/01 02:00:09;;;;;;;5.20;2.67;;;18.70;45.90;;;;;;10412209;28;20194;-30
2021/03/01 02:05:33;;;;;;;5.60;2.83;;;18.70;45.80;;;;;;10414851;28;20685;-29
2021/03/01 02:11:03;;;;;;;5.40;2.90;;;18.70;45.90;;;;;;10412164;28;20240;-30
2021/03/01 02:16:30;;;;;;;7.30;3.10;;;18.70;45.80;;;;;;10410521;28;20221;-31
2021/03/01 02:21:52;;;;;;;5.03;2.70;;;18.60;45.80;;;;;;10371869;28;20193;-30
2021/03/01 02:27:19;;;;;;;5.07;2.80;;;18.60;46.00;;;;;;10371282;28;20753;-31
2021/03/01 02:32:42;;;;;;;7.67;3.37;;;18.60;46.00;;;;;;10407421;28;20594;-31
2021/03/01 02:38:08;;;;;;;6.77;3.43;;;18.60;45.90;;;;;;10411471;28;20210;-33
2021/03/01 02:43:32;;;;;;;4.13;2.90;;;18.60;45.90;;;;;;10411447;28;20201;-30
2021/03/01 02:48:54;;;;;;;6.00;3.43;;;18.60;46.10;;;;;;10410191;28;20256;-30
2021/03/01 02:54:19;;;;;;;7.20;3.50;;;18.60;46.10;;;;;;10411770;28;20717;-31
2021/03/01 02:59:42;;;;;;;7.03;3.70;;;18.60;46.80;;;;;;10411492;28;20194;-30
2021/03/01 03:05:07;;;;;;;5.00;3.10;;;18.50;46.20;;;;;;10411858;28;20229;-30
2021/03/01 03:10:30;;;;;;;5.70;3.07;;;18.50;46.10;;;;;;10409870;28;20221;-31
2021/03/01 03:15:55;;;;;;;5.63;3.50;;;18.50;46.00;;;;;;10405285;28;20221;-31
2021/03/01 03:21:17;;;;;;;8.23;3.73;;;18.50;45.90;;;;;;10410536;28;20197;-31
2021/03/01 03:26:39;;;;;;;5.83;3.50;;;18.50;46.00;;;;;;10409476;28;20228;-31
2021/03/01 03:32:01;;;;;;;5.37;3.07;;;18.50;46.00;;;;;;10409475;28;20279;-31
2021/03/01 03:37:31;;;;;;;7.03;3.63;;;18.50;46.10;;;;;;10410140;28;20213;-31
2021/03/01 03:42:55;;;;;;;6.60;4.03;;;18.50;46.00;;;;;;10409367;28;20204;-30
2021/03/01 03:48:20;;;;;;;6.13;3.90;;;18.50;45.80;;;;;;10410233;28;20724;-28
2021/03/01 03:53:47;;;;;;;4.63;3.50;;;18.50;45.70;;;;;;10410640;28;20218;-30
2021/03/01 03:59:11;;;;;;;5.60;3.70;;;18.40;45.70;;;;;;10411810;28;20200;-33
2021/03/01 04:04:34;;;;;;;6.07;3.57;;;18.40;45.80;;;;;;10417126;28;20213;-30
2021/03/01 04:09:58;;;;;;;5.33;3.77;;;18.40;45.80;;;;;;10417267;28;20218;-31
2021/03/01 04:15:20;;;;;;;6.33;3.90;;;18.40;45.70;;;;;;10415617;28;20222;-30
2021/03/01 04:20:44;;;;;;;6.97;3.87;;;18.40;45.60;;;;;;10417488;28;20577;-30
2021/03/01 04:26:06;;;;;;;7.10;4.47;;;18.40;45.70;;;;;;10416053;28;20252;-31
2021/03/01 04:31:30;;;;;;;5.30;3.67;;;18.40;45.70;;;;;;10388797;28;20222;-30
2021/03/01 04:36:52;;;;;;;4.53;3.37;;;18.40;45.50;;;;;;10375755;28;20265;-31
2021/03/01 04:42:14;;;;;;;5.37;3.73;;;18.40;45.30;;;;;;10376329;28;20198;-31
2021/03/01 04:47:40;;;;;;;5.17;3.50;;;18.50;45.10;;;;;;10394468;28;20226;-30
2021/03/01 04:53:01;;;;;;;4.20;3.13;;;18.50;45.00;;;;;;10408307;28;20202;-31
2021/03/01 04:58:24;;;;;;;3.57;3.07;;;18.50;45.00;;;;;;10412332;28;20194;-31
2021/03/01 05:03:48;;;;;;;4.50;3.27;;;18.50;44.80;;;;;;10413062;28;20225;-28
2021/03/01 05:09:10;;;;;;;4.83;3.60;;;18.50;44.70;;;;;;10413284;28;20225;-33
2021/03/01 05:14:32;;;;;;;5.07;3.27;;;18.50;44.70;;;;;;10415582;28;20220;-29
2021/03/01 05:19:55;;;;;;;4.57;3.60;;;18.40;44.60;;;;;;10415206;28;20194;-30
2021/03/01 05:25:17;;;;;;;4.73;3.40;;;18.40;44.60;;;;;;10415295;28;20281;-30
2021/03/01 05:30:38;;;;;;;5.37;3.57;;;18.50;44.60;;;;;;10407964;28;20226;-33
2021/03/01 05:36:01;;;;;;;4.50;3.10;;;18.50;44.20;;;;;;10408588;28;20209;-32
2021/03/01 05:41:25;;;;;;;4.77;3.23;;;18.60;44.20;;;;;;10414543;28;20194;-31
2021/03/01 05:46:48;;;;;;;4.80;3.30;;;18.50;44.10;;;;;;10414170;28;20692;-29
2021/03/01 05:52:16;;;;;;;4.40;3.40;;;18.50;44.10;;;;;;10413519;28;20201;-30
2021/03/01 05:57:39;;;;;;;4.57;3.03;;;18.50;43.90;;;;;;10412839;28;20216;-29
2021/03/01 06:03:01;;;;;;;6.30;4.37;;;18.50;43.70;;;;;;10417574;28;20225;-31
2021/03/01 06:08:24;;;;;;;6.27;4.83;;;18.30;41.60;;;;;;10411813;28;20213;-31
2021/03/01 06:13:46;;;;;;;4.97;4.13;;;18.10;40.90;;;;;;10418253;28;20700;-30
2021/03/01 06:19:07;;;;;;;4.07;3.57;;;18.10;41.50;;;;;;10450773;28;20197;-31
2021/03/01 06:24:30;;;;;;;4.60;3.63;;;18.20;42.20;;;;;;10452549;28;20225;-31
2021/03/01 06:30:09;;;;;;;4.87;3.50;;;18.30;42.40;;;;;;10438894;28;20224;-28
2021/03/01 06:35:33;;;;;;;4.93;3.33;;;18.30;42.50;;;;;;10452541;28;20213;-29
2021/03/01 06:41:14;;;;;;;3.97;2.97;;;18.40;42.60;;;;;;10452316;28;20216;-31
2021/03/01 06:46:35;;;;;;;3.50;2.53;;;18.40;42.50;;;;;;10416757;28;20566;-30
2021/03/01 06:51:57;;;;;;;4.93;3.10;;;18.40;43.10;;;;;;10403820;28;20217;-32
2021/03/01 06:57:27;;;;;;;4.10;2.80;;;18.60;43.00;;;;;;10410418;28;20700;-31
2021/03/01 07:02:49;;;;;;;3.57;2.50;;;18.70;42.70;;;;;;10396035;28;20201;-31
2021/03/01 07:08:12;;;;;;;2.63;2.03;;;18.90;42.30;;;;;;10409991;28;20248;-30
2021/03/01 07:13:34;;;;;;;3.10;2.30;;;19.10;42.40;;;;;;10417873;28;20221;-31
2021/03/01 07:18:57;;;;;;;3.10;2.20;;;19.20;41.90;;;;;;10409316;28;20627;-30
2021/03/01 07:24:21;;;;;;;2.50;2.30;;;19.40;41.80;;;;;;10409640;28;20230;-30
2021/03/01 07:29:49;;;;;;;3.77;2.87;;;19.50;41.70;;;;;;10413424;28;20274;-30
2021/03/01 07:35:11;;;;;;;3.20;2.23;;;19.40;41.50;;;;;;10422751;28;20224;-31
2021/03/01 07:40:34;;;;;;;3.17;2.47;;;19.60;41.50;;;;;;10408022;28;20681;-30
2021/03/01 07:45:57;;;;;;;3.77;2.53;;;19.70;41.20;;;;;;10409419;28;20227;-31
2021/03/01 07:51:39;;;;;;;3.00;2.50;;;19.80;40.90;;;;;;10409656;28;20221;-30
2021/03/01 07:57:08;;;;;;;2.47;2.27;;;19.90;40.70;;;;;;10409256;28;20220;-31
2021/03/01 08:02:31;;;;;;;3.77;2.37;;;20.00;40.70;;;;;;10409276;28;20195;-30
2021/03/01 08:07:54;;;;;;;4.20;2.80;;;20.00;40.60;;;;;;10414581;28;20221;-30
2021/03/01 08:13:15;;;;;;;3.83;2.30;;;20.10;40.40;;;;;;10449268;28;20252;-30
2021/03/01 08:18:51;;;;;;;2.73;2.33;;;20.10;40.20;;;;;;10449373;28;20689;-31
2021/03/01 08:24:46;;;;;;;4.50;3.47;;;20.10;40.30;;;;;;10448190;28;20298;-30
2021/03/01 08:30:19;;;;;;;5.70;4.00;;;19.60;39.30;;;;;;10449475;28;20217;-30
2021/03/01 08:35:42;;;;;;;5.43;4.07;;;19.50;39.60;;;;;;10448507;28;20209;-31
2021/03/01 08:41:04;;;;;;;5.20;3.80;;;19.30;39.50;;;;;;10448217;28;20423;-30
2021/03/01 08:46:26;;;;;;;6.50;4.53;;;19.00;40.00;;;;;;10443420;28;20264;-31
2021/03/01 08:51:49;;;;;;;5.53;4.47;;;18.80;40.30;;;;;;10415797;28;20762;-30
2021/03/01 08:57:10;;;;;;;5.43;3.73;;;18.70;41.10;;;;;;10415032;28;20218;-31
2021/03/01 09:02:32;;;;;;;5.40;4.20;;;18.70;41.00;;;;;;10414954;28;20260;-30
2021/03/01 09:07:54;;;;;;;7.30;4.90;;;18.60;41.10;;;;;;10438637;28;20232;-31
2021/03/01 09:13:18;;;;;;;7.27;5.60;;;18.60;41.20;;;;;;10455778;28;20208;-31
2021/03/01 09:18:41;;;;;;;6.50;5.30;;;18.50;41.30;;;;;;10455070;28;20631;-31
2021/03/01 09:24:04;;;;;;;7.73;4.67;;;18.50;41.50;;;;;;10456348;28;20229;-30
2021/03/01 09:29:31;;;;;;;7.77;4.73;;;18.50;41.80;;;;;;10453591;28;20272;-33
2021/03/01 09:34:53;;;;;;;8.20;5.60;;;20.30;38.20;;;;;;10452987;28;20435;-39
2021/03/01 09:40:19;;;;;;;8.50;6.33;;;20.00;39.50;;;;;;10452422;28;20428;-37
2021/03/01 09:45:40;;;;;;;7.17;4.77;;;20.40;36.70;;;;;;10450801;28;20233;-35
2021/03/01 09:51:03;;;;;;;8.10;5.33;;;19.50;39.00;;;;;;10412404;28;20220;-35
2021/03/01 09:56:39;;;;;;;6.73;4.83;;;19.20;39.50;;;;;;10412571;28;20250;-39
2021/03/01 10:02:11;;;;;;;7.67;4.80;;;19.20;40.00;;;;;;10453727;28;20193;-36
2021/03/01 10:07:33;;;;;;;7.63;5.40;;;19.30;39.90;;;;;;10444970;28;20765;-35
2021/03/01 10:12:55;;;;;;;8.80;5.47;;;19.10;40.30;;;;;;10494460;28;20223;-36
2021/03/01 10:18:17;;;;;;;8.50;5.30;;;19.10;40.70;;;;;;10431577;28;20197;-35
2021/03/01 10:23:40;;;;;;;8.10;4.60;;;19.10;40.70;;;;;;10412774;28;20221;-37
2021/03/01 10:29:03;;;;;;;7.20;4.90;;;19.20;40.90;;;;;;10418714;28;20738;-35
2021/03/01 10:34:28;;;;;;;7.57;5.70;;;19.10;40.50;;;;;;10451729;28;20221;-36
2021/03/01 10:39:50;;;;;;;7.27;4.97;;;18.90;40.70;;;;;;10449873;28;20254;-36
2021/03/01 10:45:15;;;;;;;6.70;5.03;;;18.80;41.10;;;;;;10453645;28;20217;-35
2021/03/01 10:50:36;;;;;;;7.47;4.93;;;18.90;41.70;;;;;;10443518;28;20708;-36
2021/03/01 10:55:58;;;;;;;6.80;5.00;;;19.00;41.30;;;;;;10411879;28;20221;-35
2021/03/01 11:01:20;;;;;;;6.70;5.00;;;19.00;41.00;;;;;;10410724;28;20194;-35
2021/03/01 11:06:43;;;;;;;4.87;3.67;;;18.90;41.30;;;;;;10436095;28;20217;-39
2021/03/01 11:12:05;;;;;;;4.47;3.27;;;19.00;42.10;;;;;;10451177;28;20680;-37
2021/03/01 11:17:27;;;;;;;5.23;2.60;;;19.40;42.10;;;;;;10471475;28;20228;-37
2021/03/01 11:22:49;;;;;;;5.83;2.60;;;19.60;42.20;;;;;;10492673;28;20210;-37
2021/03/01 11:28:11;;;;;;;4.23;2.07;;;19.70;42.20;;;;;;10491695;28;20219;-35
2021/03/01 11:33:34;;;;;;;3.43;1.83;;;19.80;42.60;;;;;;10447420;28;20196;-35
2021/03/01 11:38:56;;;;;;;3.43;1.90;;;19.80;43.00;;;;;;10444501;28;20185;-35
2021/03/01 11:44:17;;;;;;;3.57;1.80;;;19.80;43.10;;;;;;10448824;28;20221;-36
2021/03/01 11:49:41;;;;;;;2.10;1.40;;;19.90;43.20;;;;;;10450698;28;20215;-37
2021/03/01 11:55:04;;;;;;;2.37;1.70;;;20.00;43.40;;;;;;10449856;28;20274;-36
2021/03/01 12:00:26;;;;;;;3.00;1.70;;;19.80;43.80;;;;;;10451080;28;20189;-37
2021/03/01 12:05:49;;;;;;;3.57;2.30;;;19.70;44.20;;;;;;10450483;28;20216;-36
2021/03/01 12:11:10;;;;;;;5.73;2.27;;;19.60;44.50;;;;;;10417049;28;20601;-37
2021/03/01 12:16:32;;;;;;;7.87;2.53;;;19.60;44.80;;;;;;10447944;28;20225;-36
2021/03/01 12:21:54;;;;;;;4.47;2.13;;;19.80;44.80;;;;;;10454470;28;20573;-35
2021/03/01 12:27:16;;;;;;;5.00;2.40;;;20.00;44.50;;;;;;10456005;28;20717;-37
2021/03/01 12:32:38;;;;;;;5.73;2.57;;;20.10;44.40;;;;;;10457512;28;20193;-35
2021/03/01 12:38:00;;;;;;;4.43;2.87;;;20.20;44.40;;;;;;10457467;28;20757;-36
2021/03/01 12:43:22;;;;;;;5.57;2.77;;;20.30;44.20;;;;;;10457079;28;20199;-35
2021/03/01 12:48:43;;;;;;;9.73;2.90;;;20.40;44.10;;;;;;10427585;28;20223;-35
2021/03/01 12:54:06;;;;;;;4.63;2.23;;;20.40;44.10;;;;;;10415995;28;20244;-35
2021/03/01 12:59:28;;;;;;;4.13;2.00;;;20.40;44.30;;;;;;10415077;28;20741;-37
2021/03/01 13:04:49;;;;;;;4.10;2.40;;;20.40;44.40;;;;;;10426000;28;20232;-36
2021/03/01 13:10:13;;;;;;;5.23;2.03;;;20.50;44.30;;;;;;10455108;28;20280;-35
2021/03/01 13:15:35;;;;;;;2.83;1.80;;;20.60;44.20;;;;;;10455108;28;20227;-36
2021/03/01 13:20:57;;;;;;;3.77;2.33;;;20.60;44.10;;;;;;10455663;28;20201;-36
2021/03/01 13:26:19;;;;;;;5.43;2.37;;;20.60;44.30;;;;;;10454887;28;20298;-38
2021/03/01 13:31:41;;;;;;;3.33;1.93;;;20.60;44.30;;;;;;10451989;28;20609;-37
2021/03/01 13:37:03;;;;;;;3.07;1.57;;;20.70;44.40;;;;;;10455913;28;20224;-36
2021/03/01 13:42:25;;;;;;;5.20;1.83;;;20.70;44.30;;;;;;10453355;28;20197;-37
2021/03/01 13:47:47;;;;;;;2.63;1.93;;;20.80;44.30;;;;;;10434673;28;20222;-38
2021/03/01 13:53:08;;;;;;;3.83;1.93;;;20.80;44.40;;;;;;10442237;28;20203;-37
2021/03/01 13:58:31;;;;;;;6.47;1.80;;;20.80;44.50;;;;;;10452204;28;20197;-36
2021/03/01 14:03:53;;;;;;;7.17;1.97;;;20.80;44.50;;;;;;10446624;28;20224;-36
2021/03/01 14:09:15;;;;;;;4.33;1.50;;;21.00;44.60;;;;;;10451361;28;20245;-37
2021/03/01 14:14:38;;;;;;;2.67;1.33;;;21.60;43.70;;;;;;10452736;28;20220;-37
2021/03/01 14:19:59;;;;;;;2.70;1.20;;;21.80;43.10;;;;;;10452819;28;20193;-36
2021/03/01 14:25:21;;;;;;;3.37;1.63;;;22.00;42.80;;;;;;10453383;28;20595;-35
2021/03/01 14:30:43;;;;;;;7.43;1.43;;;22.20;42.40;;;;;;10453105;28;20223;-38
2021/03/01 14:36:05;;;;;;;2.73;1.10;;;22.00;42.70;;;;;;10452290;28;20209;-35
2021/03/01 14:41:28;;;;;;;2.30;1.37;;;21.70;43.10;;;;;;10452439;28;20193;-35
2021/03/01 14:46:50;;;;;;;3.70;1.53;;;21.50;43.50;;;;;;10450173;28;20221;-35
2021/03/01 14:52:12;;;;;;;2.60;1.57;;;21.40;43.80;;;;;;10439978;28;20217;-35
2021/03/01 14:57:33;;;;;;;3.87;1.40;;;21.40;43.90;;;;;;10421127;28;20217;-37
2021/03/01 15:08:07;;;;;;;3.77;1.30;;;21.40;44.30;;;;;;11248519;22;20271;-38
2021/03/01 15:13:30;;;;;;;4.57;1.73;;;21.20;44.70;;;;;;10401503;28;20198;-32
2021/03/01 15:24:02;;;;;;;2.63;1.30;;;20.80;45.50;;;;;;10341207;28;20315;-32
2021/03/01 15:29:24;;;;;;;2.40;1.30;;;20.70;45.70;;;;;;10343062;28;20225;-33
2021/03/01 15:34:46;;;;;;;3.00;1.20;;;20.70;46.00;;;;;;10332507;28;20316;-33
2021/03/01 15:40:10;;;;;;;2.23;1.30;;;20.50;46.10;;;;;;10341827;28;20256;-33
2021/03/01 15:45:32;;;;;;;1.50;0.90;;;20.50;46.30;;;;;;10360409;28;20203;-32
2021/03/01 15:50:53;;;;;;;2.27;1.20;;;20.60;46.30;;;;;;10367612;28;20609;-33
2021/03/01 15:56:16;;;;;;;1.70;1.10;;;20.70;46.40;;;;;;10370912;28;20249;-32
2021/03/01 16:01:37;;;;;;;5.60;1.40;;;20.60;46.40;;;;;;10364122;28;20218;-33
2021/03/01 16:06:59;;;;;;;1.90;1.10;;;20.70;46.40;;;;;;10331044;28;20195;-32
2021/03/01 16:12:22;;;;;;;2.20;1.27;;;20.70;46.30;;;;;;10407889;28;20231;-32
2021/03/01 16:17:48;;;;;;;2.60;1.27;;;20.70;46.10;;;;;;10404603;28;20199;-32
2021/03/01 16:23:10;;;;;;;2.17;1.20;;;20.70;46.20;;;;;;10382127;28;20705;-32
2021/03/01 16:28:32;;;;;;;2.17;1.43;;;20.70;46.10;;;;;;10371743;28;20229;-33
2021/03/01 16:33:55;;;;;;;2.97;1.57;;;20.70;46.00;;;;;;10369282;28;20756;-33
2021/03/01 16:39:18;;;;;;;2.87;1.60;;;20.70;45.90;;;;;;10362421;28;20211;-34
2021/03/01 16:44:41;;;;;;;5.60;1.83;;;20.70;45.70;;;;;;10366503;28;20229;-31
2021/03/01 16:50:04;;;;;;;2.03;1.47;;;20.70;45.80;;;;;;10370577;28;20656;-32
2021/03/01 16:55:26;;;;;;;3.93;1.50;;;20.60;46.00;;;;;;10368932;28;20253;-32
2021/03/01 17:00:50;;;;;;;2.47;1.07;;;20.60;46.20;;;;;;10365946;28;20414;-32
2021/03/01 17:06:16;;;;;;;3.50;1.40;;;20.60;46.30;;;;;;10405825;28;20209;-31
2021/03/01 17:11:40;;;;;;;1.53;1.10;;;20.70;46.00;;;;;;10330831;28;20282;-33
2021/03/01 17:17:04;;;;;;;2.10;1.40;;;20.80;45.90;;;;;;10350964;28;20210;-32
2021/03/01 17:22:27;;;;;;;2.03;1.50;;;20.80;45.90;;;;;;10363654;28;20428;-29
2021/03/01 17:27:49;;;;;;;2.80;1.47;;;20.90;46.00;;;;;;10370195;28;20553;-27
2021/03/01 17:33:12;;;;;;;2.87;1.50;;;20.90;45.80;;;;;;10370326;28;20224;-26
2021/03/01 17:38:34;;;;;;;2.63;1.30;;;20.90;45.60;;;;;;10376408;28;20201;-26
2021/03/01 17:43:56;;;;;;;2.50;1.40;;;20.90;45.70;;;;;;10372146;28;20665;-27
2021/03/01 17:49:24;;;;;;;1.33;1.23;;;20.80;45.80;;;;;;10350195;28;20218;-26
2021/03/01 17:54:54;;;;;;;2.40;1.73;;;20.70;46.20;;;;;;10346505;28;20191;-26
2021/03/01 18:00:19;;;;;;;1.37;1.20;;;20.50;46.30;;;;;;10326752;28;20214;-26
2021/03/01 18:05:45;;;;;;;2.33;1.33;;;20.40;46.60;;;;;;10355653;28;20203;-26
2021/03/01 18:11:07;;;;;;;2.40;1.53;;;20.40;46.90;;;;;;10350105;28;20227;-27
2021/03/01 18:16:31;;;;;;;3.30;1.50;;;20.30;47.10;;;;;;10351376;28;20560;-26
2021/03/01 18:21:54;;;;;;;4.63;2.37;;;20.30;47.30;;;;;;10362467;28;20641;-26
2021/03/01 18:27:19;;;;;;;5.57;2.20;;;20.20;45.80;;;;;;10364277;28;20203;-26
2021/03/01 18:32:47;;;;;;;4.80;2.10;;;20.30;46.10;;;;;;10329293;28;20230;-26
2021/03/01 18:38:16;;;;;;;4.23;2.13;;;20.50;46.40;;;;;;10337044;28;20198;-26
2021/03/01 18:43:39;;;;;;;2.37;1.70;;;20.60;46.40;;;;;;10367113;28;20594;-26
2021/03/01 18:49:02;;;;;;;4.77;1.63;;;20.60;46.60;;;;;;10368927;28;20225;-25
2021/03/01 18:54:24;;;;;;;2.07;1.70;;;20.70;46.60;;;;;;10365726;28;20197;-26
2021/03/01 18:59:46;;;;;;;4.50;1.90;;;20.60;46.70;;;;;;10359589;28;20703;-27
2021/03/01 19:05:09;;;;;;;3.73;2.20;;;20.50;46.90;;;;;;10361568;28;20206;-26
2021/03/01 19:10:31;;;;;;;3.37;2.33;;;20.50;47.10;;;;;;10343348;28;20277;-26
2021/03/01 19:15:53;;;;;;;3.37;2.43;;;20.30;47.40;;;;;;10352265;28;20209;-25
2021/03/01 19:21:14;;;;;;;7.13;2.83;;;20.20;47.70;;;;;;10351084;28;20236;-26
2021/03/01 19:26:37;;;;;;;6.10;3.33;;;20.20;47.70;;;;;;10367337;28;20203;-28
2021/03/01 19:31:59;;;;;;;4.40;3.00;;;20.40;47.00;;;;;;10371977;28;20647;-26
2021/03/01 19:37:20;;;;;;;3.57;3.03;;;20.70;46.40;;;;;;10351459;28;20259;-27
2021/03/01 19:42:43;;;;;;;5.43;3.47;;;20.80;46.00;;;;;;10367415;28;21080;-27
2021/03/01 19:48:06;;;;;;;6.13;3.23;;;20.90;45.90;;;;;;10368577;28;20198;-26
2021/03/01 19:53:28;;;;;;;4.60;3.47;;;20.90;45.70;;;;;;10363108;28;20222;-27
2021/03/01 19:58:50;;;;;;;4.00;3.10;;;21.00;45.70;;;;;;10356848;28;20208;-27
2021/03/01 20:04:12;;;;;;;4.97;3.30;;;21.10;45.50;;;;;;10345180;28;20202;-27
2021/03/01 20:09:34;;;;;;;5.33;3.13;;;21.20;45.90;;;;;;10361122;28;20218;-26
2021/03/01 20:14:56;;;;;;;5.37;3.50;;;21.30;45.20;;;;;;10407937;28;20248;-26
2021/03/01 20:20:18;;;;;;;4.17;3.20;;;21.40;45.70;;;;;;10368316;28;20209;-28
2021/03/01 20:25:40;;;;;;;4.27;3.07;;;21.40;44.90;;;;;;10368380;28;20209;-26
2021/03/01 20:31:02;;;;;;;5.03;3.40;;;21.50;44.80;;;;;;10367236;28;20296;-25
2021/03/01 20:36:24;;;;;;;3.87;2.90;;;21.60;44.80;;;;;;10367403;28;20662;-26
2021/03/01 20:41:46;;;;;;;4.17;3.47;;;21.60;45.30;;;;;;10371529;28;20237;-26
2021/03/01 20:47:08;;;;;;;4.50;2.77;;;21.50;44.80;;;;;;10359571;28;20198;-27
2021/03/01 20:52:30;;;;;;;3.70;2.73;;;21.60;44.80;;;;;;10350443;28;20226;-27
2021/03/01 20:57:51;;;;;;;4.97;2.97;;;21.60;44.70;;;;;;10349793;28;20267;-27
2021/03/01 21:03:14;;;;;;;4.27;2.97;;;21.60;44.70;;;;;;10365263;28;20322;-26
2021/03/01 21:08:37;;;;;;;3.37;2.83;;;21.60;44.80;;;;;;10368364;28;20206;-26
2021/03/01 21:13:58;;;;;;;3.17;2.67;;;21.50;44.90;;;;;;10346236;28;20191;-28
2021/03/01 21:19:22;;;;;;;3.93;2.67;;;21.50;44.90;;;;;;10367073;28;20214;-27
2021/03/01 21:24:44;;;;;;;3.17;2.80;;;21.50;45.00;;;;;;10374846;23;20601;-24
2021/03/01 21:30:08;;;;;;;4.20;2.93;;;21.60;45.10;;;;;;10373311;28;20272;-25
2021/03/01 21:35:31;;;;;;;4.13;2.63;;;21.50;44.90;;;;;;10372305;28;20624;-25
2021/03/01 21:40:54;;;;;;;5.03;3.00;;;21.60;45.00;;;;;;10370387;28;20609;-25
2021/03/01 21:46:21;;;;;;;3.33;2.83;;;21.10;45.50;;;;;;10364043;28;20194;-24
2021/03/01 21:51:47;;;;;;;3.80;3.10;;;20.80;46.30;;;;;;10371987;28;20284;-25
2021/03/01 21:57:09;;;;;;;4.27;2.77;;;20.60;46.80;;;;;;10371033;28;20198;-24
2021/03/01 22:02:32;;;;;;;3.30;3.00;;;20.40;47.20;;;;;;10372442;28;20218;-24
2021/03/01 22:07:54;;;;;;;3.43;2.73;;;20.20;47.50;;;;;;10372124;28;20228;-25
2021/03/01 22:13:20;;;;;;;3.03;2.60;;;20.20;47.60;;;;;;10340558;28;20220;-25
2021/03/01 22:18:42;;;;;;;3.30;2.60;;;20.10;47.70;;;;;;10331589;28;20207;-25
2021/03/01 22:24:06;;;;;;;2.53;2.17;;;20.10;47.80;;;;;;10331160;28;20226;-24
2021/03/01 22:29:28;;;;;;;3.83;3.03;;;20.00;48.00;;;;;;10334662;28;20211;-24
2021/03/01 22:34:50;;;;;;;2.90;2.50;;;19.90;48.00;;;;;;10362065;28;20217;-25
2021/03/01 22:40:15;;;;;;;4.97;2.80;;;19.90;48.10;;;;;;10354986;28;20203;-25
2021/03/01 22:45:37;;;;;;;3.60;2.90;;;19.90;48.10;;;;;;10371000;28;20701;-25
2021/03/01 22:50:59;;;;;;;3.63;2.90;;;19.80;48.20;;;;;;10370120;28;20318;-25
2021/03/01 22:56:23;;;;;;;3.17;2.63;;;19.80;48.30;;;;;;10355466;28;20280;-25
2021/03/01 23:01:45;;;;;;;2.60;2.40;;;19.70;48.40;;;;;;10368606;28;20229;-24
2021/03/01 23:07:08;;;;;;;3.40;2.50;;;19.70;48.50;;;;;;10369678;28;20218;-26
2021/03/01 23:12:30;;;;;;;3.27;2.60;;;19.70;48.40;;;;;;10359903;28;20308;-26
2021/03/01 23:17:53;;;;;;;2.90;2.57;;;19.60;48.50;;;;;;10368331;28;20199;-25
2021/03/01 23:23:14;;;;;;;3.17;2.40;;;19.60;48.60;;;;;;10340596;28;20613;-24
2021/03/01 23:28:37;;;;;;;3.40;2.77;;;19.60;48.70;;;;;;10344203;28;20190;-23
2021/03/01 23:33:58;;;;;;;2.83;2.57;;;19.60;48.70;;;;;;10350673;28;20222;-23
2021/03/01 23:39:23;;;;;;;3.53;2.20;;;19.60;48.60;;;;;;10357266;28;20191;-25
2021/03/01 23:44:47;;;;;;;2.93;2.50;;;19.50;48.70;;;;;;10355610;28;20250;-24
2021/03/01 23:50:11;;;;;;;2.60;2.40;;;19.50;48.80;;;;;;10288516;28;20219;-24
2021/03/01 23:55:35;;;;;;;3.00;2.33;;;19.50;48.90;;;;;;10288158;28;20220;-25
